Disclaimer

    

CYCD

LWIS CYCD 261100Z AUTO 26006KT 00/00 A3030=

LWIS CYCD 261000Z AUTO 21005KT 00/00 A3027=

LWIS CYCD 260900Z AUTO 25005KT 00/00 A3028=

TAF CYCD 252340Z 2600/2605 VRB03KT 6SM BR OVC007 TEMPO 2600/2603 4SMBRFM260300 VRB03KT 6SM BR OVC005 TEMPO 2603/2605 2SM BRRMK NXT FCST BY 261600Z

CYVR

SPECI CYVR 261119Z VRB03KT 12SM OVC004 02/02 A3028 RMK ST8 SLP256=

METAR CYVR 261100Z VRB02KT 12SM OVC005 02/02 A3028 RMK ST8 SLP255=

METAR CYVR 261000Z 04005KT 12SM OVC006 02/02 A3028 RMK ST8 SLP255=

METAR CYVR 260900Z 01004KT 12SM OVC006 02/02 A3029 RMK ST8 SLP258=

TAF CYVR 261140Z 2612/2718 VRB03KT P6SM OVC006 TEMPO 2612/2621 1SMBR OVC003 PROB30 2612/2617 1/2SM FG VV002FM262100 29008KT P6SM FEW004 SCT008FM270300 VRB03KT P6SM SCT003 BKN006 TEMPO 2703/2718 OVC003RMK NXT FCST BY 261500Z

CYXX

METAR CYXX 261100Z 02004KT 1/4SM R07/2200V2800FT/N FZFG VV002 M01/M01 A3027 RMK FG8 FROIN SLP254=

METAR CYXX 261000Z VRB02KT 1/2SM R07/2600V3000FT/N FZFG VV002 M01/M01 A3026 RMK FG8 FROIN SLP252=

METAR CYXX 260900Z 00000KT 1/2SM R07/2000V2400FT/N FZFG VV002 M00/M01 A3026 RMK FG8 FROIN SLP252=

TAF CYXX 261140Z 2612/2712 VRB03KT 1/4SM FZFG VV002 TEMPO 2612/26193SM BR BKN006FM261900 04005KT P6SM FEW002 SCT006 TEMPO 2619/2621 3SM BRBKN006 PROB30 2619/2621 2SM BR BKN005FM270300 VRB03KT 1SM BR BKN005RMK NXT FCST BY 261800Z=

Supplemental information

Lower mainland ATIS: 1-877-517-2847

CZBB (Boundary Bay) current winds

Upper winds (Vancouver)

Data fromValid at300060009000
26000026060099003218+053220-02
26000026120099000110+053411-02
26000027000008063308+063514-01

NOTAMs

On October 10, 2019, NAV CANADA changed to the ICAO NOTAM format. They are now available only through Collaborative Flight Planning Services (CFPS) (plan.navcanada.ca). I'm working to update this site to pull in the relevant NOTAMs in the new format.